Corbin City, New Jersey
Current Conditions -  °F | °C
As of 10:11 AM on Wednesday 22 Oct 2014 (Local Time) from KMIV Reporting Station
Broken Clouds Broken Clouds  
Wind Chill: 59°   Ceiling: 1700
Heat Index: 59°   Visibility: 10mi
Dew Point: 52°   Wind: 13mph
Humidity: 78%   Direction: 20°NNE
Pressure: 29.84"   Gusts: 21mph
Location:  39.2589°N, 74.8124°W
Report Text: KMIV 221411Z AUTO 02011G18KT 10SM BKN017 15/11 A2984 RMK AO2 T01500111 PNO $
Loading
Personal Weather Stations






























Interactive Weather Map
Tropical Storm Tracking
New forecast layout! Learn more

10-Day Weather Forecast

Advertisements
Track Severe Weather on mobile